createdAt,value
2018-02-14T00:00:09.833Z,65.69
2018-02-14T00:00:50.370Z,65.78
2018-02-14T00:01:30.927Z,65.31
2018-02-14T00:02:11.481Z,66.07
2018-02-14T00:02:52.043Z,66.07
2018-02-14T00:03:32.608Z,65.5
2018-02-14T00:04:13.161Z,65.5
2018-02-14T00:04:53.748Z,65.69
2018-02-14T00:05:34.332Z,65.59
2018-02-14T00:06:14.898Z,65.69
2018-02-14T00:06:55.452Z,65.5
2018-02-14T00:07:36.055Z,65.97
2018-02-14T00:08:16.603Z,66.07
2018-02-14T00:08:57.164Z,66.16
2018-02-14T00:09:37.716Z,65.78
2018-02-14T00:10:18.279Z,65.97
2018-02-14T00:10:58.852Z,66.07
2018-02-14T00:11:39.429Z,66.07
2018-02-14T00:12:20.024Z,65.5
2018-02-14T00:13:00.607Z,65.5
2018-02-14T00:13:41.189Z,65.88
2018-02-14T00:14:21.742Z,65.78
2018-02-14T00:15:02.321Z,65.59
2018-02-14T00:15:42.882Z,65.59
2018-02-14T00:16:23.468Z,65.69
2018-02-14T00:17:04.034Z,65.5
2018-02-14T00:17:44.591Z,65.53
2018-02-14T00:18:25.154Z,65.41
2018-02-14T00:19:05.737Z,66.29
2018-02-14T00:19:46.296Z,65.88
2018-02-14T00:20:26.868Z,65.5
2018-02-14T00:21:07.433Z,65.97
2018-02-14T00:21:47.981Z,65.72
2018-02-14T00:22:28.533Z,65.91
2018-02-14T00:23:09.098Z,65.63
2018-02-14T00:23:49.682Z,65.91
2018-02-14T00:24:30.246Z,65.53
2018-02-14T00:25:10.807Z,65.72
2018-02-14T00:25:51.369Z,65.5
2018-02-14T00:26:31.920Z,65.82
2018-02-14T00:27:12.477Z,65.78
2018-02-14T00:27:53.047Z,65.22
2018-02-14T00:28:33.623Z,65.78
2018-02-14T00:29:14.162Z,65.31
2018-02-14T00:29:54.756Z,65.53
2018-02-14T00:30:35.316Z,65.72
2018-02-14T00:31:15.873Z,65.41
2018-02-14T00:31:56.444Z,65.41
2018-02-14T00:32:37.063Z,65.59
2018-02-14T00:33:17.631Z,65.31
2018-02-14T00:33:58.192Z,65.69
2018-02-14T00:34:38.763Z,65.69
2018-02-14T00:35:19.326Z,65.31
2018-02-14T00:35:59.886Z,65.25
2018-02-14T00:36:40.447Z,65.41
2018-02-14T00:37:21.004Z,65.78
2018-02-14T00:38:01.578Z,65.88
2018-02-14T00:38:42.130Z,66.07
2018-02-14T00:39:22.696Z,65.69
2018-02-14T00:40:03.254Z,65.72
2018-02-14T00:40:43.805Z,65.5
2018-02-14T00:41:24.364Z,65.44
2018-02-14T00:42:04.927Z,66.26
2018-02-14T00:42:45.517Z,66.54
2018-02-14T00:43:26.074Z,67.11
2018-02-14T00:44:06.637Z,66.93
2018-02-14T00:44:47.179Z,66.45
2018-02-14T00:45:27.764Z,66.07
2018-02-14T00:46:08.350Z,66.26
2018-02-14T00:46:48.920Z,66.64
2018-02-14T00:47:29.477Z,66.35
2018-02-14T00:48:10.019Z,65.78
2018-02-14T00:48:50.589Z,65.5
2018-02-14T00:49:31.161Z,66.16
2018-02-14T00:50:11.720Z,66.26
2018-02-14T00:50:52.282Z,66.07
2018-02-14T00:51:32.878Z,65.88
2018-02-14T00:52:13.483Z,65.06
2018-02-14T00:52:54.097Z,64.36
2018-02-14T00:53:34.666Z,65.5
2018-02-14T00:54:15.219Z,64.97
2018-02-14T00:54:55.758Z,65.72
2018-02-14T00:55:36.313Z,65.91
2018-02-14T00:56:16.870Z,65.78
2018-02-14T00:56:57.539Z,65.12
2018-02-14T00:57:38.097Z,65.44
2018-02-14T00:58:18.659Z,65.69
2018-02-14T00:58:59.212Z,65.5
2018-02-14T00:59:39.773Z,66.16
2018-02-14T01:00:20.353Z,65.69
2018-02-14T01:01:00.905Z,65.53
2018-02-14T01:01:41.475Z,65.72
2018-02-14T01:02:22.035Z,65.82
2018-02-14T01:03:02.608Z,66.1
2018-02-14T01:03:43.173Z,65.97
2018-02-14T01:04:23.758Z,66.45
2018-02-14T01:05:04.302Z,67.02
2018-02-14T01:05:44.872Z,66.74
2018-02-14T01:06:25.441Z,65.69
2018-02-14T01:07:05.998Z,65.88
2018-02-14T01:07:46.561Z,65.88
2018-02-14T01:08:27.125Z,65.88
2018-02-14T01:09:07.680Z,65.88
2018-02-14T01:09:48.236Z,66.16
2018-02-14T01:10:28.809Z,66.45
2018-02-14T01:11:09.364Z,66.58
2018-02-14T01:11:49.928Z,66.96
2018-02-14T01:12:30.488Z,66.1
2018-02-14T01:13:11.055Z,65.78
2018-02-14T01:13:51.607Z,65.5
2018-02-14T01:14:32.156Z,64.74
2018-02-14T01:15:12.726Z,65.5
2018-02-14T01:15:53.285Z,65.5
2018-02-14T01:16:37.019Z,65.69
2018-02-14T01:17:17.918Z,65.97
2018-02-14T01:17:58.486Z,65.69
2018-02-14T01:18:39.036Z,65.88
2018-02-14T01:19:19.611Z,66.07
2018-02-14T01:20:00.185Z,65.69
2018-02-14T01:20:40.746Z,65.5
2018-02-14T01:21:21.296Z,65.22
2018-02-14T01:22:01.862Z,65.5
2018-02-14T01:22:42.424Z,65.69
2018-02-14T01:23:22.968Z,65.69
2018-02-14T01:24:03.539Z,65.69
2018-02-14T01:24:44.114Z,65.97
2018-02-14T01:25:24.665Z,65.59
2018-02-14T01:26:05.210Z,65.41
2018-02-14T01:26:45.785Z,65.59
2018-02-14T01:27:26.321Z,65.97
2018-02-14T01:28:06.903Z,65.59
2018-02-14T01:28:47.469Z,66.54
2018-02-14T01:29:28.059Z,65.97
2018-02-14T01:30:08.614Z,65.59
2018-02-14T01:30:49.172Z,65.78
2018-02-14T01:31:29.731Z,65.5
2018-02-14T01:32:10.314Z,65.59
2018-02-14T01:32:50.874Z,66.07
2018-02-14T01:33:31.433Z,65.97
2018-02-14T01:34:12.000Z,65.69
2018-02-14T01:34:52.556Z,65.97
2018-02-14T01:35:33.102Z,66.64
2018-02-14T01:36:13.676Z,66.54
2018-02-14T01:36:54.233Z,66.74
2018-02-14T01:37:34.789Z,66.35
2018-02-14T01:38:15.375Z,65.88
2018-02-14T01:38:55.951Z,65.69
2018-02-14T01:39:36.513Z,65.78
2018-02-14T01:40:17.067Z,65.5
2018-02-14T01:40:57.648Z,65.78
2018-02-14T01:41:38.204Z,65.41
2018-02-14T01:42:18.750Z,65.59
2018-02-14T01:42:59.303Z,65.59
2018-02-14T01:43:39.874Z,65.59
2018-02-14T01:44:20.438Z,65.88
2018-02-14T01:45:01.022Z,66.07
2018-02-14T01:45:41.577Z,65.78
2018-02-14T01:46:22.172Z,65.69
2018-02-14T01:47:02.738Z,65.78
2018-02-14T01:47:43.295Z,66.54
2018-02-14T01:48:23.839Z,67.02
2018-02-14T01:49:04.391Z,67.11
2018-02-14T01:49:44.952Z,66.74
2018-02-14T01:50:25.509Z,66.93
2018-02-14T01:51:06.065Z,66.93
2018-02-14T01:51:46.629Z,67.02
2018-02-14T01:52:27.187Z,67.21
2018-02-14T01:53:07.758Z,67.21
2018-02-14T01:53:48.310Z,67.11
2018-02-14T01:54:28.875Z,66.93
2018-02-14T01:55:09.439Z,66.64
2018-02-14T01:55:49.994Z,66.54
2018-02-14T01:56:30.546Z,67.02
2018-02-14T01:57:11.099Z,66.93
2018-02-14T01:57:51.659Z,66.93
2018-02-14T01:58:32.228Z,67.02
2018-02-14T01:59:12.789Z,67.21
2018-02-14T01:59:53.363Z,66.93
2018-02-14T02:00:33.912Z,66.83
2018-02-14T02:01:14.473Z,67.21
2018-02-14T02:01:55.029Z,66.64
2018-02-14T02:02:35.582Z,66.74
2018-02-14T02:03:16.136Z,66.45
2018-02-14T02:03:56.710Z,66.45
2018-02-14T02:04:37.266Z,66.54
2018-02-14T02:05:17.825Z,66.83
2018-02-14T02:05:58.381Z,66.83
2018-02-14T02:06:38.938Z,66.83
2018-02-14T02:07:19.498Z,66.93
2018-02-14T02:08:00.061Z,66.74
2018-02-14T02:08:40.644Z,66.93
2018-02-14T02:09:21.204Z,66.74
2018-02-14T02:10:01.767Z,67.21
2018-02-14T02:10:42.302Z,67.21
2018-02-14T02:11:22.854Z,67.4
2018-02-14T02:12:03.421Z,66.83
2018-02-14T02:12:43.990Z,66.54
2018-02-14T02:13:24.589Z,66.26
2018-02-14T02:14:05.151Z,66.64
2018-02-14T02:14:45.672Z,66.54
2018-02-14T02:15:26.232Z,66.16
2018-02-14T02:16:06.824Z,65.78
2018-02-14T02:16:47.377Z,65.69
2018-02-14T02:17:27.945Z,65.5
2018-02-14T02:18:08.514Z,65.03
2018-02-14T02:18:49.082Z,65.69
2018-02-14T02:19:29.637Z,65.59
2018-02-14T02:20:10.190Z,65.59
2018-02-14T02:20:50.799Z,65.5
2018-02-14T02:21:31.293Z,65.88
2018-02-14T02:22:11.909Z,65.5
2018-02-14T02:22:52.455Z,65.69
2018-02-14T02:23:33.051Z,65.78
2018-02-14T02:24:13.560Z,65.97
2018-02-14T02:24:54.119Z,66.16
2018-02-14T02:25:34.679Z,66.64
2018-02-14T02:26:15.231Z,66.74
2018-02-14T02:26:55.790Z,66.83
2018-02-14T02:27:36.343Z,66.93
2018-02-14T02:28:16.894Z,66.54
2018-02-14T02:28:57.461Z,66.64
2018-02-14T02:29:38.015Z,66.93
2018-02-14T02:30:18.567Z,65.69
2018-02-14T02:30:59.130Z,65.59
2018-02-14T02:31:39.671Z,65.03
2018-02-14T02:32:20.228Z,64.84
2018-02-14T02:33:00.787Z,64.84
2018-02-14T02:33:41.349Z,65.03
2018-02-14T02:34:21.905Z,65.31
2018-02-14T02:35:02.491Z,65.12
2018-02-14T02:35:43.057Z,64.46
2018-02-14T02:36:23.599Z,64.36
2018-02-14T02:37:04.184Z,64.93
2018-02-14T02:37:44.741Z,64.55
2018-02-14T02:38:25.301Z,64.84
2018-02-14T02:39:05.843Z,64.74
2018-02-14T02:39:46.408Z,65.59
2018-02-14T02:40:26.961Z,64.93
2018-02-14T02:41:07.517Z,65.31
2018-02-14T02:41:48.074Z,65.31
2018-02-14T02:42:28.631Z,65.41
2018-02-14T02:43:09.191Z,65.5
2018-02-14T02:43:49.752Z,65.59
2018-02-14T02:44:30.314Z,65.31
2018-02-14T02:45:10.876Z,65.5
2018-02-14T02:45:51.435Z,65.59
2018-02-14T02:46:31.991Z,65.69
2018-02-14T02:47:12.550Z,65.78
2018-02-14T02:47:53.127Z,65.78
2018-02-14T02:48:33.681Z,65.47
2018-02-14T02:49:14.244Z,66.13
2018-02-14T02:49:54.802Z,66.6
2018-02-14T02:50:35.359Z,66.93
2018-02-14T02:51:15.926Z,67.21
2018-02-14T02:51:56.481Z,67.02
2018-02-14T02:52:37.046Z,67.02
2018-02-14T02:53:17.595Z,66.64
2018-02-14T02:53:58.144Z,66.74
2018-02-14T02:54:38.690Z,66.93
2018-02-14T02:55:19.251Z,67.4
2018-02-14T02:55:59.804Z,67.11
2018-02-14T02:56:40.378Z,66.93
2018-02-14T02:57:20.940Z,66.16
2018-02-14T02:58:01.511Z,66.16
2018-02-14T02:58:42.081Z,66.64
2018-02-14T02:59:22.641Z,66.07
2018-02-14T03:00:03.210Z,65.88
2018-02-14T03:00:43.764Z,66.16
2018-02-14T03:01:24.341Z,65.69
2018-02-14T03:02:04.896Z,66.16
2018-02-14T03:02:45.457Z,66.26
2018-02-14T03:03:26.012Z,66.07
2018-02-14T03:04:06.584Z,65.5
2018-02-14T03:04:47.141Z,65.5
2018-02-14T03:05:27.706Z,65.78
2018-02-14T03:06:08.263Z,65.88
2018-02-14T03:06:48.826Z,65.69
2018-02-14T03:07:29.397Z,65.88
2018-02-14T03:08:09.968Z,65.78
2018-02-14T03:08:50.527Z,65.78
2018-02-14T03:09:31.100Z,65.41
2018-02-14T03:10:11.660Z,65.69
2018-02-14T03:10:52.211Z,66.26
2018-02-14T03:11:32.774Z,66.16
2018-02-14T03:12:13.341Z,66.07
2018-02-14T03:12:53.893Z,65.69
2018-02-14T03:13:34.470Z,65.69
2018-02-14T03:14:15.033Z,65.5
2018-02-14T03:14:55.589Z,65.59
2018-02-14T03:15:36.143Z,65.88
2018-02-14T03:16:16.703Z,65.88
2018-02-14T03:16:57.287Z,65.88
2018-02-14T03:17:37.828Z,65.5
2018-02-14T03:18:18.392Z,64.46
2018-02-14T03:18:58.943Z,64.71
2018-02-14T03:19:39.516Z,65.28
2018-02-14T03:20:20.093Z,65.19
2018-02-14T03:21:00.660Z,65
2018-02-14T03:21:41.216Z,65.59
2018-02-14T03:22:21.779Z,65.59
2018-02-14T03:23:02.329Z,64.36
2018-02-14T03:23:42.890Z,64.74
2018-02-14T03:24:23.464Z,65.41
2018-02-14T03:25:04.024Z,65.31
2018-02-14T03:25:44.578Z,65.88
2018-02-14T03:26:25.139Z,65.22
2018-02-14T03:27:05.722Z,64.71
2018-02-14T03:27:46.285Z,64.52
2018-02-14T03:28:26.840Z,64.81
2018-02-14T03:29:07.410Z,65.37
2018-02-14T03:29:47.964Z,65.66
2018-02-14T03:30:28.530Z,65.47
2018-02-14T03:31:09.077Z,65.41
2018-02-14T03:31:49.635Z,65.88
2018-02-14T03:32:30.196Z,65.41
2018-02-14T03:33:10.753Z,64.74
2018-02-14T03:33:51.327Z,64.74
2018-02-14T03:34:31.895Z,64.27
2018-02-14T03:35:12.452Z,64.17
2018-02-14T03:35:53.015Z,64.74
2018-02-14T03:36:33.568Z,64.55
2018-02-14T03:37:14.109Z,64.84
2018-02-14T03:37:54.672Z,63.85
2018-02-14T03:38:35.240Z,63.89
2018-02-14T03:39:15.805Z,63.85
2018-02-14T03:39:56.368Z,64.61
2018-02-14T03:40:36.929Z,64.9
2018-02-14T03:41:17.483Z,65.84
2018-02-14T03:41:58.036Z,65.47
2018-02-14T03:42:38.598Z,65.37
2018-02-14T03:43:19.151Z,65.75
2018-02-14T03:43:59.709Z,65.47
2018-02-14T03:44:40.276Z,65.66
2018-02-14T03:45:20.852Z,65.84
2018-02-14T03:46:01.435Z,65.66
2018-02-14T03:46:41.995Z,65.47
2018-02-14T03:47:22.566Z,65.94
2018-02-14T03:48:03.126Z,65.88
2018-02-14T03:48:43.686Z,65.84
2018-02-14T03:49:24.249Z,65.47
2018-02-14T03:50:04.820Z,65.75
2018-02-14T03:50:45.371Z,65.47
2018-02-14T03:51:25.922Z,65.84
2018-02-14T03:52:06.479Z,65.28
2018-02-14T03:52:47.031Z,65.84
2018-02-14T03:53:27.590Z,65.66
2018-02-14T03:54:08.151Z,65.66
2018-02-14T03:54:48.712Z,65.75
2018-02-14T03:55:29.266Z,65.47
2018-02-14T03:56:09.844Z,65.75
2018-02-14T03:56:50.402Z,65.66
2018-02-14T03:57:30.963Z,65.47
2018-02-14T03:58:11.532Z,65.66
2018-02-14T03:58:52.081Z,65.47
2018-02-14T03:59:32.652Z,65.66
2018-02-14T04:00:13.214Z,65.37
2018-02-14T04:00:53.776Z,65.84
2018-02-14T04:01:34.321Z,66.22
2018-02-14T04:02:14.885Z,65.84
2018-02-14T04:02:55.452Z,65.47
2018-02-14T04:03:36.010Z,66.03
2018-02-14T04:04:16.575Z,66.03
2018-02-14T04:04:57.147Z,65.84
2018-02-14T04:05:37.706Z,65.75
2018-02-14T04:06:18.268Z,65.94
2018-02-14T04:06:58.820Z,65.47
2018-02-14T04:07:39.387Z,65.75
2018-02-14T04:08:19.959Z,65.47
2018-02-14T04:09:00.504Z,65.75
2018-02-14T04:09:41.058Z,65.37
2018-02-14T04:10:21.615Z,65.56
2018-02-14T04:11:02.166Z,65.84
2018-02-14T04:11:44.100Z,65.56
2018-02-14T04:12:24.658Z,65.66
2018-02-14T04:13:05.221Z,65.66
2018-02-14T04:13:45.786Z,65.47
2018-02-14T04:14:26.347Z,65.66
2018-02-14T04:15:06.903Z,65.94
2018-02-14T04:15:47.464Z,66.32
2018-02-14T04:16:28.025Z,66.7
2018-02-14T04:17:08.591Z,65.94
2018-02-14T04:17:49.157Z,66.6
2018-02-14T04:18:29.729Z,66.8
2018-02-14T04:19:10.284Z,66.89
2018-02-14T04:19:50.842Z,66.41
2018-02-14T04:20:31.400Z,66.8
2018-02-14T04:21:11.961Z,66.22
2018-02-14T04:21:52.539Z,66.03
2018-02-14T04:22:33.126Z,66.22
2018-02-14T04:23:13.677Z,66.32
2018-02-14T04:23:54.234Z,66.03
2018-02-14T04:24:34.790Z,66.03
2018-02-14T04:25:15.339Z,66.41
2018-02-14T04:25:55.901Z,66.51
2018-02-14T04:26:36.465Z,66.7
2018-02-14T04:27:17.028Z,66.6
2018-02-14T04:27:57.583Z,66.51
2018-02-14T04:28:38.118Z,66.8
2018-02-14T04:29:18.669Z,66.89
2018-02-14T04:29:59.227Z,67.18
2018-02-14T04:30:39.790Z,67.65
2018-02-14T04:31:20.333Z,67.36
2018-02-14T04:32:00.896Z,67.36
2018-02-14T04:32:41.458Z,67.83
2018-02-14T04:33:22.027Z,66.8
2018-02-14T04:34:02.574Z,66.8
2018-02-14T04:34:43.136Z,66.7
2018-02-14T04:35:23.705Z,66.51
2018-02-14T04:36:04.269Z,66.7
2018-02-14T04:36:44.838Z,66.7
2018-02-14T04:37:25.387Z,66.8
2018-02-14T04:38:05.933Z,66.8
2018-02-14T04:38:46.519Z,66.99
2018-02-14T04:39:27.074Z,67.08
2018-02-14T04:40:07.637Z,66.99
2018-02-14T04:40:48.204Z,66.7
2018-02-14T04:41:28.786Z,66.6
2018-02-14T04:42:09.341Z,66.8
2018-02-14T04:42:49.901Z,66.8
2018-02-14T04:43:30.465Z,66.89
2018-02-14T04:44:11.025Z,67.18
2018-02-14T04:44:51.586Z,67.08
2018-02-14T04:45:32.154Z,66.89
2018-02-14T04:46:12.703Z,67.18
2018-02-14T04:46:53.258Z,66.6
2018-02-14T04:47:33.851Z,66.51
2018-02-14T04:48:14.394Z,66.89
2018-02-14T04:48:54.955Z,67.08
2018-02-14T04:49:35.528Z,67.36
2018-02-14T04:50:16.084Z,67.55
2018-02-14T04:50:56.656Z,66.99
2018-02-14T04:51:37.216Z,66.7
2018-02-14T04:52:17.780Z,67.36
2018-02-14T04:52:58.327Z,67.36
2018-02-14T04:53:38.898Z,67.65
2018-02-14T04:54:19.452Z,67.46
2018-02-14T04:55:00.011Z,66.99
2018-02-14T04:55:40.562Z,66.8
2018-02-14T04:56:21.122Z,66.7
2018-02-14T04:57:02.636Z,66.99
2018-02-14T04:57:43.195Z,66.89
2018-02-14T04:58:23.763Z,67.18
2018-02-14T04:59:04.308Z,66.89
2018-02-14T04:59:44.866Z,67.08
2018-02-14T05:00:25.418Z,66.99
2018-02-14T05:01:05.959Z,66.89
2018-02-14T05:01:46.514Z,67.27
2018-02-14T05:02:27.070Z,67.74
2018-02-14T05:03:07.686Z,67.36
2018-02-14T05:03:48.208Z,67.36
2018-02-14T05:04:28.771Z,66.99
2018-02-14T05:05:09.319Z,67.36
2018-02-14T05:05:49.876Z,67.27
2018-02-14T05:06:30.428Z,67.46
2018-02-14T05:07:10.979Z,67.74
2018-02-14T05:07:51.544Z,67.46
2018-02-14T05:08:32.089Z,67.46
2018-02-14T05:09:12.662Z,67.83
2018-02-14T05:09:53.197Z,68.02
2018-02-14T05:10:33.763Z,68.5
2018-02-14T05:11:14.320Z,68.4
2018-02-14T05:11:54.880Z,68.31
2018-02-14T05:12:35.450Z,68.5
2018-02-14T05:13:16.014Z,68.21
2018-02-14T05:13:56.573Z,68.31
2018-02-14T05:14:37.123Z,68.12
2018-02-14T05:15:17.695Z,68.5
2018-02-14T05:15:58.254Z,68.59
2018-02-14T05:16:38.799Z,68.02
2018-02-14T05:17:19.361Z,68.4
2018-02-14T05:17:59.912Z,67.27
2018-02-14T05:18:40.490Z,67.55
2018-02-14T05:19:21.042Z,67.46
2018-02-14T05:20:01.588Z,67.36
2018-02-14T05:20:42.136Z,67.36
2018-02-14T05:21:22.701Z,67.36
2018-02-14T05:22:03.267Z,67.27
2018-02-14T05:22:43.820Z,67.46
2018-02-14T05:23:24.382Z,67.08
2018-02-14T05:24:04.935Z,67.18
2018-02-14T05:24:45.498Z,67.08
2018-02-14T05:25:26.082Z,67.27
2018-02-14T05:26:06.636Z,67.36
2018-02-14T05:26:47.195Z,67.36
2018-02-14T05:27:27.759Z,67.46
2018-02-14T05:28:08.328Z,68.02
2018-02-14T05:28:48.880Z,68.02
2018-02-14T05:29:29.465Z,67.83
2018-02-14T05:30:10.043Z,68.4
2018-02-14T05:30:50.603Z,68.5
2018-02-14T05:31:31.217Z,67.93
2018-02-14T05:32:11.765Z,68.02
2018-02-14T05:32:52.322Z,68.02
2018-02-14T05:33:32.882Z,68.31
2018-02-14T05:34:13.439Z,67.65
2018-02-14T05:34:54.006Z,67.46
2018-02-14T05:35:34.562Z,67.18
2018-02-14T05:36:15.123Z,67.36
2018-02-14T05:36:55.690Z,67.27
2018-02-14T05:37:36.252Z,68.02
2018-02-14T05:38:17.440Z,67.36
2018-02-14T05:38:58.001Z,67.46
2018-02-14T05:39:38.543Z,67.46
2018-02-14T05:40:19.107Z,67.74
2018-02-14T05:40:59.669Z,67.4
2018-02-14T05:41:40.273Z,67.02
2018-02-14T05:42:20.781Z,67.27
2018-02-14T05:43:01.340Z,67.65
2018-02-14T05:43:41.871Z,67.65
2018-02-14T05:44:22.431Z,67.46
2018-02-14T05:45:03.000Z,67.46
2018-02-14T05:45:43.554Z,67.83
2018-02-14T05:46:24.116Z,67.65
2018-02-14T05:47:04.673Z,67.83
2018-02-14T05:47:45.231Z,67.46
2018-02-14T05:48:25.799Z,67.46
2018-02-14T05:49:06.369Z,67.55
2018-02-14T05:49:46.923Z,67.46
2018-02-14T05:50:27.491Z,67.36
2018-02-14T05:51:08.049Z,67.65
2018-02-14T05:51:48.608Z,67.65
2018-02-14T05:52:29.141Z,67.36
2018-02-14T05:53:09.698Z,67.46
2018-02-14T05:53:50.260Z,67.46
2018-02-14T05:54:30.809Z,67.36
2018-02-14T05:55:11.389Z,68.21
2018-02-14T05:55:51.963Z,67.74
2018-02-14T05:56:32.516Z,67.74
2018-02-14T05:57:13.071Z,67.93
2018-02-14T05:57:53.614Z,67.83
2018-02-14T05:58:34.176Z,67.93
2018-02-14T05:59:14.741Z,68.02
2018-02-14T05:59:55.301Z,67.93
2018-02-14T06:00:35.861Z,68.12
2018-02-14T06:01:16.436Z,68.12
2018-02-14T06:01:56.996Z,67.36
2018-02-14T06:02:37.543Z,67.55
2018-02-14T06:03:18.095Z,67.83
2018-02-14T06:03:58.649Z,67.65
2018-02-14T06:04:39.248Z,68.69
2018-02-14T06:05:19.843Z,68.31
2018-02-14T06:06:00.421Z,68.69
2018-02-14T06:06:40.997Z,68.4
2018-02-14T06:07:21.543Z,68.59
2018-02-14T06:08:02.109Z,68.4
2018-02-14T06:08:42.653Z,68.5
2018-02-14T06:09:23.230Z,68.88
2018-02-14T06:10:03.819Z,69.07
2018-02-14T06:10:44.352Z,68.59
2018-02-14T06:11:24.931Z,68.31
2018-02-14T06:12:05.478Z,68.79
2018-02-14T06:12:46.041Z,69.17
2018-02-14T06:13:26.596Z,69.45
2018-02-14T06:14:07.154Z,68.4
2018-02-14T06:14:47.777Z,68.79
2018-02-14T06:15:28.266Z,68.79
2018-02-14T06:16:08.818Z,69.17
2018-02-14T06:16:49.392Z,69.73
2018-02-14T06:17:29.960Z,70.68
2018-02-14T06:18:10.523Z,71.25
2018-02-14T06:18:51.086Z,72.19
2018-02-14T06:19:31.632Z,72.29
2018-02-14T06:20:12.184Z,71.81
2018-02-14T06:20:52.740Z,72.1
2018-02-14T06:21:33.333Z,72.29
2018-02-14T06:22:13.907Z,72.48
2018-02-14T06:22:54.464Z,73.33
2018-02-14T06:23:35.025Z,74.28
2018-02-14T06:24:15.589Z,73.99
2018-02-14T06:24:56.173Z,73.99
2018-02-14T06:25:36.733Z,74.75
2018-02-14T06:26:17.290Z,74.95
2018-02-14T06:26:57.874Z,75.04
2018-02-14T06:27:38.415Z,74.56
2018-02-14T06:28:18.989Z,73.99
2018-02-14T06:28:59.547Z,73.61
2018-02-14T06:29:40.104Z,73.52
2018-02-14T06:30:20.667Z,73.61
2018-02-14T06:31:01.212Z,72.86
2018-02-14T06:31:41.763Z,73.24
2018-02-14T06:32:22.321Z,74.09
2018-02-14T06:33:02.900Z,74.18
2018-02-14T06:33:43.473Z,74.09
2018-02-14T06:34:24.021Z,73.43
2018-02-14T06:35:04.596Z,73.61
2018-02-14T06:35:45.169Z,72.57
2018-02-14T06:36:25.729Z,72.77
2018-02-14T06:37:06.287Z,73.24
2018-02-14T06:37:46.879Z,73.99
2018-02-14T06:38:27.433Z,74.66
2018-02-14T06:39:07.990Z,73.71
2018-02-14T06:39:49.311Z,73.33
2018-02-14T06:40:29.858Z,73.14
2018-02-14T06:41:10.421Z,74.09
2018-02-14T06:41:50.970Z,75.42
2018-02-14T06:42:31.533Z,76.17
2018-02-14T06:43:12.076Z,76.74
2018-02-14T06:43:52.638Z,76.46
2018-02-14T06:44:33.203Z,76.17
2018-02-14T06:45:13.792Z,75.89
2018-02-14T06:45:54.345Z,76.55
2018-02-14T06:46:34.913Z,76.27
2018-02-14T06:47:15.470Z,75.51
2018-02-14T06:47:56.032Z,75.6
2018-02-14T06:48:36.566Z,74.18
2018-02-14T06:49:17.182Z,73.52
2018-02-14T06:49:57.740Z,74.09
2018-02-14T06:50:38.295Z,74.09
2018-02-14T06:51:18.838Z,74.47
2018-02-14T06:51:59.394Z,74.47
2018-02-14T06:52:39.989Z,74.18
2018-02-14T06:53:20.539Z,74.37
2018-02-14T06:54:01.072Z,74.47
2018-02-14T06:54:41.620Z,75.13
2018-02-14T06:55:22.179Z,74.85
2018-02-14T06:56:02.730Z,74.75
2018-02-14T06:56:43.286Z,75.26
2018-02-14T06:57:23.847Z,75.13
2018-02-14T06:58:04.414Z,75.32
2018-02-14T06:58:44.993Z,75.93
2018-02-14T06:59:25.548Z,76.46
2018-02-14T07:00:06.125Z,75.7
2018-02-14T07:00:46.664Z,76.21
2018-02-14T07:01:27.220Z,75.89
2018-02-14T07:02:07.780Z,76.27
2018-02-14T07:02:48.331Z,76.5
2018-02-14T07:03:28.896Z,77.64
2018-02-14T07:04:09.460Z,78.96
2018-02-14T07:04:50.052Z,80.57
2018-02-14T07:05:30.618Z,80.19
2018-02-14T07:06:11.193Z,79.91
2018-02-14T07:06:51.736Z,80.53
2018-02-14T07:07:32.289Z,81.62
2018-02-14T07:08:12.838Z,82.66
2018-02-14T07:08:53.413Z,83.8
2018-02-14T07:09:33.953Z,82.18
2018-02-14T07:10:14.558Z,81.14
2018-02-14T07:10:55.218Z,81.52
2018-02-14T07:11:35.787Z,81.24
2018-02-14T07:12:16.409Z,81.05
2018-02-14T07:12:56.959Z,81.62
2018-02-14T07:13:37.510Z,86.26
2018-02-14T07:14:18.114Z,93.46
2018-02-14T07:14:58.668Z,98.02
2018-02-14T07:15:39.795Z,99.99
2018-02-14T07:16:20.377Z,99.82
2018-02-14T07:17:00.932Z,99.99
2018-02-14T07:17:41.506Z,97.45
2018-02-14T07:18:22.079Z,93.94
2018-02-14T07:19:02.648Z,92.71
2018-02-14T07:19:43.200Z,88.54
2018-02-14T07:20:23.763Z,85.41
2018-02-14T07:21:04.340Z,85.22
2018-02-14T07:21:44.895Z,83.7
2018-02-14T07:22:25.960Z,83.23
2018-02-14T07:23:06.638Z,82.47
2018-02-14T07:23:47.211Z,82.18
2018-02-14T07:24:27.765Z,85.03
2018-02-14T07:25:08.329Z,91.85
2018-02-14T07:25:48.887Z,94.6
2018-02-14T07:26:29.451Z,97.73
2018-02-14T07:27:10.008Z,99.99
2018-02-14T07:27:50.603Z,93.84
2018-02-14T07:28:31.182Z,96.88
2018-02-14T07:29:11.731Z,97.07
2018-02-14T07:29:52.308Z,96.03
2018-02-14T07:30:32.880Z,90.62
2018-02-14T07:31:13.445Z,86.74
2018-02-14T07:31:54.010Z,84.65
2018-02-14T07:32:34.564Z,83.61
2018-02-14T07:33:15.140Z,83.32
2018-02-14T07:33:55.851Z,82.56
2018-02-14T07:34:36.274Z,81.14
2018-02-14T07:35:16.853Z,80.67
2018-02-14T07:35:57.432Z,78.3
2018-02-14T07:36:37.974Z,77.35
2018-02-14T07:37:18.534Z,77.35
2018-02-14T07:37:59.084Z,76.68
2018-02-14T07:38:39.643Z,77.35
2018-02-14T07:39:20.198Z,77.35
2018-02-14T07:40:00.759Z,76.12
2018-02-14T07:40:41.360Z,74.51
2018-02-14T07:41:21.864Z,73.75
2018-02-14T07:42:02.419Z,73.46
2018-02-14T07:42:43.000Z,73.18
2018-02-14T07:43:23.560Z,73.08
2018-02-14T07:44:04.134Z,74.51
2018-02-14T07:44:44.684Z,75.07
2018-02-14T07:45:25.272Z,74.88
2018-02-14T07:46:05.819Z,77.06
2018-02-14T07:46:46.399Z,78.3
2018-02-14T07:47:26.946Z,78.11
2018-02-14T07:48:07.512Z,76.97
2018-02-14T07:48:48.064Z,73.84
2018-02-14T07:49:28.684Z,73.65
2018-02-14T07:50:09.258Z,76.03
2018-02-14T07:50:49.816Z,78.77
2018-02-14T07:51:30.343Z,79.44
2018-02-14T07:52:10.932Z,80.48
2018-02-14T07:52:51.468Z,79.72
2018-02-14T07:53:32.017Z,82.28
2018-02-14T07:54:12.561Z,84.84
2018-02-14T07:54:53.126Z,85.22
2018-02-14T07:55:33.676Z,95.65
2018-02-14T07:56:14.255Z,99.99
2018-02-14T07:56:54.914Z,99.99
2018-02-14T07:57:35.515Z,99.99
2018-02-14T07:58:16.078Z,99.99
2018-02-14T07:58:56.627Z,99.99
2018-02-14T07:59:37.181Z,99.99
2018-02-14T08:00:17.744Z,99.99
2018-02-14T08:00:58.289Z,99.99
2018-02-14T08:01:38.858Z,98.11
2018-02-14T08:02:19.414Z,93.08
2018-02-14T08:02:59.967Z,89.01
2018-02-14T08:03:40.522Z,86.07
2018-02-14T08:04:21.124Z,83.23
2018-02-14T08:05:01.695Z,83.89
2018-02-14T08:05:42.255Z,82.75
2018-02-14T08:06:22.822Z,99.99
2018-02-14T08:07:03.366Z,99.99
2018-02-14T08:07:43.976Z,99.99
2018-02-14T08:08:24.581Z,99.99
2018-02-14T08:09:05.576Z,99.99
2018-02-14T08:09:46.117Z,99.99
2018-02-14T08:10:26.673Z,99.99
2018-02-14T08:11:07.215Z,92.52
2018-02-14T08:11:47.785Z,88.35
2018-02-14T08:12:28.325Z,83.23
2018-02-14T08:13:08.891Z,82.66
2018-02-14T08:13:49.449Z,81.24
2018-02-14T08:14:29.986Z,79.82
2018-02-14T08:15:10.540Z,78.67
2018-02-14T08:15:51.159Z,78.11
2018-02-14T08:16:31.743Z,77.54
2018-02-14T08:17:12.756Z,77.92
2018-02-14T08:17:53.550Z,78.11
2018-02-14T08:18:34.063Z,76.97
2018-02-14T08:19:14.631Z,87.4
2018-02-14T08:19:55.179Z,99.99
2018-02-14T08:20:35.728Z,99.99
2018-02-14T08:21:16.275Z,99.99
2018-02-14T08:21:56.827Z,99.99
2018-02-14T08:22:37.389Z,99.99
2018-02-14T08:23:18.367Z,99.99
2018-02-14T08:23:58.946Z,93.51
2018-02-14T08:24:39.547Z,90.1
2018-02-14T08:25:20.123Z,84.27
2018-02-14T08:26:00.709Z,82.75
2018-02-14T08:26:41.276Z,81.33
2018-02-14T08:27:21.843Z,81.24
2018-02-14T08:28:02.390Z,78.96
2018-02-14T08:28:42.979Z,76.97
2018-02-14T08:29:24.013Z,74.88
2018-02-14T08:30:04.188Z,73.65
2018-02-14T08:30:44.764Z,72.42
2018-02-14T08:31:25.315Z,73.08
2018-02-14T08:32:05.882Z,73.37
2018-02-14T08:32:46.450Z,73.46
2018-02-14T08:33:27.010Z,72.23
2018-02-14T08:34:07.553Z,70.24
2018-02-14T08:34:48.141Z,69.86
2018-02-14T08:35:28.817Z,70.15
2018-02-14T08:36:09.396Z,71.85
2018-02-14T08:36:49.932Z,74.03
2018-02-14T08:37:30.481Z,75.55
2018-02-14T08:38:11.023Z,72.71
2018-02-14T08:38:51.586Z,71.47
2018-02-14T08:39:32.141Z,71.76
2018-02-14T08:40:12.672Z,73.08
2018-02-14T08:40:53.231Z,77.35
2018-02-14T08:41:33.783Z,80.67
2018-02-14T08:42:14.341Z,81.9
2018-02-14T08:42:54.918Z,82.94
2018-02-14T08:43:35.488Z,82.94
2018-02-14T08:44:16.051Z,83.13